Time;durP1;ratioP1;P1;durP2;ratioP2;P2;SDS_P1;SDS_P2;PMS_P1;PMS_P2;Temp;Humidity;BMP_temperature;BMP_pressure;BME280_temperature;BME280_humidity;BME280_pressure;Samples;Min_cycle;Max_cycle;Signal;HPM_P1;HPM_P2
2024/01/03 00:01:34;;;;;;;5.20;4.03;;;;;;;20.56;56.67;99063.38;41355661;28;20085;-73
2024/01/03 00:21:36;;;;;;;5.13;4.15;;;;;;;20.53;56.81;99042.63;41356988;28;20426;-73
2024/01/03 00:41:36;;;;;;;5.13;4.55;;;;;;;20.52;56.70;99057.59;41348845;28;20513;-76
2024/01/03 01:01:36;;;;;;;4.53;4.07;;;;;;;20.51;56.33;99079.59;41351447;28;20042;-73
2024/01/03 01:21:40;;;;;;;6.35;3.85;;;;;;;20.47;56.43;99065.09;41348960;28;20793;-74
2024/01/03 01:41:41;;;;;;;5.03;4.00;;;;;;;20.45;56.64;99036.31;41337052;28;20118;-73
2024/01/03 02:01:42;;;;;;;4.10;3.70;;;;;;;20.43;56.44;99011.13;41212115;28;20057;-72
2024/01/03 02:21:43;;;;;;;4.75;4.10;;;;;;;20.40;56.51;98996.47;41342426;28;20080;-73
2024/01/03 02:41:43;;;;;;;4.45;3.45;;;;;;;20.38;56.27;98960.81;41222163;28;20045;-73
2024/01/03 03:01:43;;;;;;;4.75;3.30;;;;;;;20.36;56.07;98952.22;41362878;28;20410;-72
2024/01/03 03:21:44;;;;;;;3.50;3.20;;;;;;;20.26;56.50;98950.50;41354124;28;20057;-73
2024/01/03 03:41:44;;;;;;;3.85;3.05;;;;;;;20.22;56.15;98943.88;41343834;28;20115;-73
2024/01/03 04:01:51;;;;;;;3.92;3.20;;;;;;;20.26;56.16;98963.66;41376796;28;20489;-73
2024/01/03 04:21:51;;;;;;;3.38;2.63;;;;;;;20.25;55.98;98993.53;41356016;28;20125;-71
2024/01/03 04:41:52;;;;;;;3.75;3.00;;;;;;;20.24;55.86;98976.09;41337892;28;20502;-73
2024/01/03 05:01:52;;;;;;;3.25;2.65;;;;;;;20.28;55.59;98945.91;41343598;28;20041;-73
2024/01/03 05:21:53;;;;;;;3.28;2.40;;;;;;;20.85;54.09;98962.41;41355292;28;20045;-72
2024/01/03 05:41:53;;;;;;;10.45;2.90;;;;;;;21.17;54.55;98947.88;41378014;28;20084;-77
2024/01/03 06:01:54;;;;;;;4.03;2.35;;;;;;;21.32;53.91;98964.75;41386387;28;20526;-71
2024/01/03 06:21:54;;;;;;;3.10;2.20;;;;;;;21.22;54.39;98979.84;41372468;28;20043;-72
2024/01/03 06:41:54;;;;;;;3.97;2.33;;;;;;;21.34;54.63;98983.88;41372313;28;20061;-72
2024/01/03 07:01:56;;;;;;;6.40;2.00;;;;;;;21.47;53.95;98972.94;41369841;28;20045;-73
2024/01/03 07:21:56;;;;;;;5.47;2.30;;;;;;;21.74;53.99;98982.50;41404175;28;20046;-73
2024/01/03 07:41:56;;;;;;;6.55;2.65;;;;;;;21.59;53.99;98973.50;41427576;28;20042;-75
2024/01/03 08:01:57;;;;;;;8.18;4.00;;;;;;;21.65;54.08;98972.06;41422077;28;20073;-68
2024/01/03 08:21:59;;;;;;;6.20;3.97;;;;;;;21.67;54.85;98991.19;41424870;28;20046;-68
2024/01/03 08:42:01;;;;;;;9.38;5.20;;;;;;;21.72;54.24;99007.34;41417781;28;20062;-74
2024/01/03 09:02:01;;;;;;;6.25;5.40;;;;;;;21.68;54.50;99022.63;41379083;28;20060;-74
2024/01/03 09:22:02;;;;;;;8.75;5.18;;;;;;;21.60;54.58;99041.03;41422080;28;20057;-70
2024/01/03 09:42:03;;;;;;;9.15;5.47;;;;;;;21.61;54.50;99041.88;41421132;28;20042;-67
2024/01/03 10:02:05;;;;;;;8.15;5.68;;;;;;;;;;41432936;28;20129;-66
2024/01/03 10:22:06;;;;;;;9.60;5.88;;;;;;;21.69;54.72;99050.63;41400344;28;20046;-68
2024/01/03 10:42:08;;;;;;;9.18;5.63;;;;;;;21.88;53.94;99025.88;41429516;28;20037;-71
2024/01/03 11:02:24;;;;;;;11.10;6.05;;;;;;;22.26;53.04;99014.19;41417061;28;20052;-71
2024/01/03 11:22:54;;;;;;;24.15;8.93;;;;;;;22.07;53.38;98998.47;41397288;28;20956;-69
2024/01/03 11:42:57;;;;;;;26.70;9.32;;;;;;;21.96;53.91;98977.66;41359018;28;20054;-71
2024/01/03 12:02:58;;;;;;;22.65;9.48;;;;;;;21.94;53.85;98966.44;41402962;28;20049;-69
2024/01/03 12:23:09;;;;;;;22.05;10.50;;;;;;;21.97;53.94;98968.78;41363190;28;20065;-70
2024/01/03 12:43:10;;;;;;;21.40;8.95;;;;;;;21.96;53.79;98980.31;41309994;28;20050;-73
2024/01/03 13:03:11;;;;;;;29.33;8.35;;;;;;;22.01;53.58;98970.09;41331430;28;20057;-69
2024/01/03 13:23:11;;;;;;;16.63;7.40;;;;;;;22.26;53.18;99001.00;41337678;28;20038;-72
2024/01/03 13:43:13;;;;;;;16.15;7.60;;;;;;;22.25;52.80;98981.72;41349834;28;20049;-69
2024/01/03 14:03:13;;;;;;;17.73;6.55;;;;;;;22.15;53.50;98984.47;41359038;28;20103;-68
2024/01/03 14:23:14;;;;;;;11.52;5.97;;;;;;;22.09;52.96;98990.38;41367142;28;20567;-70
2024/01/03 14:43:33;;;;;;;10.75;5.18;;;;;;;22.02;53.58;98997.28;41379342;28;20050;-71
2024/01/03 15:03:35;;;;;;;8.07;4.80;;;;;;;21.86;53.65;98996.22;41395944;28;20038;-71
2024/01/03 15:23:36;;;;;;;10.02;4.43;;;;;;;21.80;54.02;99003.91;41395080;28;20952;-68
2024/01/03 15:43:36;;;;;;;7.13;4.28;;;;;;;21.74;54.45;98984.31;41364312;28;20054;-67
2024/01/03 16:03:37;;;;;;;5.97;3.85;;;;;;;21.64;54.47;98991.50;41361788;28;20108;-67
2024/01/03 16:23:37;;;;;;;5.75;3.70;;;;;;;21.61;54.28;98982.09;41363948;28;20056;-71
2024/01/03 16:43:38;;;;;;;5.10;3.50;;;;;;;21.46;54.05;98975.69;41346580;28;20122;-71
2024/01/03 17:03:39;;;;;;;5.00;3.20;;;;;;;21.37;54.18;98978.31;41353948;28;20053;-71
2024/01/03 17:23:40;;;;;;;4.05;3.08;;;;;;;21.33;53.30;98984.03;41329376;28;20436;-73
2024/01/03 17:43:41;;;;;;;5.05;3.00;;;;;;;21.33;54.72;98992.75;41374897;28;20053;-74
2024/01/03 18:03:41;;;;;;;7.78;3.00;;;;;;;21.39;54.93;99012.38;41393104;28;20137;-75
2024/01/03 18:23:43;;;;;;;10.82;4.00;;;;;;;21.41;55.72;98963.84;41431587;28;21048;-75
2024/01/03 18:43:44;;;;;;;20.00;8.98;;;;;;;21.52;56.01;98972.44;41411584;28;20053;-77
2024/01/03 19:03:45;;;;;;;21.45;10.77;;;;;;;21.48;56.38;98973.75;41426771;28;20070;-77
2024/01/03 19:23:45;;;;;;;21.08;9.88;;;;;;;21.41;56.30;98966.47;41461248;28;20169;-85
2024/01/03 19:43:48;;;;;;;91.15;20.90;;;;;;;21.51;57.33;99023.50;41453115;28;20132;-80
2024/01/03 20:03:48;;;;;;;346.05;80.05;;;;;;;21.79;60.94;98931.13;41382218;28;20120;-75
2024/01/03 20:23:49;;;;;;;298.92;72.30;;;;;;;21.86;63.07;98937.41;41303118;28;20110;-75
2024/01/03 20:43:49;;;;;;;233.15;64.63;;;;;;;22.01;62.49;98916.56;41378622;28;20101;-77
2024/01/03 21:03:49;;;;;;;198.95;59.00;;;;;;;21.99;61.47;98894.81;41328262;28;20049;-77
2024/01/03 21:23:50;;;;;;;161.70;50.00;;;;;;;21.93;60.71;98885.72;41272924;28;20043;-79
2024/01/03 21:43:50;;;;;;;133.00;45.45;;;;;;;21.93;59.95;98883.09;41409185;28;20100;-76
2024/01/03 22:03:51;;;;;;;119.63;40.03;;;;;;;21.91;59.61;98932.53;41367365;28;20577;-79
2024/01/03 22:23:53;;;;;;;97.05;35.40;;;;;;;21.89;58.76;98910.75;41381679;28;20053;-74
2024/01/03 22:43:53;;;;;;;53.28;18.88;;;;;;;21.22;54.79;98885.88;41366458;28;20572;-69
2024/01/03 23:03:55;;;;;;;42.17;16.13;;;;;;;21.33;56.07;98908.50;41376129;28;20046;-69
2024/01/03 23:23:56;;;;;;;35.95;14.63;;;;;;;21.27;57.54;98851.19;41365499;28;20054;-70
2024/01/03 23:43:57;;;;;;;30.05;13.27;;;;;;;21.26;57.87;98850.38;41316003;28;20142;-70
